Aberdovey, United Kingdom
Current Conditions -  °F | °C
As of 3:50 PM on Monday 24 Nov 2014 (Local Time) from EGOV Reporting Station
Broken Clouds Broken Clouds  
Wind Chill: 50°   Ceiling: 4000
Heat Index: 50°   Visibility: 6mi
Dew Point: 37°   Wind: 10mph
Humidity: 62%   Direction: 230°SW
Pressure: 30.27"   Gusts: NA
Location:  52.55°N, 4.05°W
Report Text: EGOV 241550Z 23009KT 9999 FEW019 BKN040 10/03 Q1025 BLU NOSIG
Loading
Personal Weather Stations






























Interactive Weather Map New forecast layout! Learn more

10-Day Weather Forecast

Advertisements
Track Severe Weather on mobile